createdAt,value
2022-08-20T00:01:23.075Z,99.90
2022-08-20T00:03:53.433Z,99.90
2022-08-20T00:06:24.304Z,99.90
2022-08-20T00:08:54.824Z,99.90
2022-08-20T00:11:26.308Z,99.90
2022-08-20T00:14:00.046Z,99.90
2022-08-20T00:16:33.135Z,99.90
2022-08-20T00:19:02.637Z,99.90
2022-08-20T00:21:31.621Z,99.90
2022-08-20T00:24:01.841Z,99.90
2022-08-20T00:26:30.669Z,99.90
2022-08-20T00:28:59.377Z,99.90
2022-08-20T00:31:28.553Z,99.90
2022-08-20T00:33:57.435Z,99.90
2022-08-20T00:36:32.295Z,99.90
2022-08-20T00:39:03.574Z,99.90
2022-08-20T00:41:32.388Z,99.90
2022-08-20T00:44:13.075Z,99.90
2022-08-20T00:46:42.981Z,99.90
2022-08-20T00:49:17.730Z,99.90
2022-08-20T00:51:50.526Z,99.90
2022-08-20T00:54:25.152Z,99.90
2022-08-20T00:57:01.708Z,1.00
2022-08-20T00:59:32.681Z,1.00
2022-08-20T01:02:02.978Z,1.00
2022-08-20T01:04:34.850Z,1.00
2022-08-20T01:07:05.599Z,1.00
2022-08-20T01:09:58.508Z,1.00
2022-08-20T01:12:27.541Z,1.00
2022-08-20T01:14:57.099Z,1.00
2022-08-20T01:17:30.433Z,1.00
2022-08-20T01:20:04.564Z,1.00
2022-08-20T01:23:18.074Z,1.00
2022-08-20T01:25:51.810Z,1.00
2022-08-20T01:28:25.671Z,1.00
2022-08-20T01:30:54.511Z,1.00
2022-08-20T01:33:24.409Z,1.00
2022-08-20T01:35:54.563Z,1.00
2022-08-20T01:38:23.718Z,1.00
2022-08-20T01:41:41.049Z,1.00
2022-08-20T01:44:16.038Z,1.00
2022-08-20T01:46:47.773Z,1.00
2022-08-20T01:49:23.321Z,1.00
2022-08-20T01:51:53.598Z,1.00
2022-08-20T01:54:23.209Z,1.00
2022-08-20T01:56:56.826Z,1.00
2022-08-20T01:59:26.990Z,1.00
2022-08-20T02:01:56.990Z,1.00
2022-08-20T02:04:25.826Z,1.00
2022-08-20T02:06:57.755Z,1.00
2022-08-20T02:09:29.591Z,1.00
2022-08-20T02:11:58.953Z,1.00
2022-08-20T02:14:29.266Z,1.00
2022-08-20T02:16:58.741Z,1.00
2022-08-20T02:19:32.408Z,1.00
2022-08-20T02:22:20.385Z,1.00
2022-08-20T02:24:51.546Z,1.00
2022-08-20T02:27:20.417Z,1.00
2022-08-20T02:29:50.649Z,1.00
2022-08-20T02:32:32.396Z,1.00
2022-08-20T02:35:04.024Z,1.00
2022-08-20T02:37:33.142Z,1.00
2022-08-20T02:40:01.856Z,1.00
2022-08-20T02:42:30.618Z,1.00
2022-08-20T02:45:00.730Z,1.00
2022-08-20T02:47:29.526Z,1.00
2022-08-20T02:49:59.906Z,1.00
2022-08-20T02:52:28.954Z,1.00
2022-08-20T02:54:57.626Z,1.00
2022-08-20T02:57:26.530Z,1.00
2022-08-20T02:59:55.139Z,1.00
2022-08-20T03:02:25.220Z,1.00
2022-08-20T03:04:53.818Z,1.00
2022-08-20T03:07:22.896Z,1.00
2022-08-20T03:09:51.647Z,4.20
2022-08-20T03:12:20.296Z,19.90
2022-08-20T03:14:48.963Z,1.00
2022-08-20T03:17:17.864Z,1.40
2022-08-20T03:19:47.918Z,4.60
2022-08-20T03:22:16.662Z,13.50
2022-08-20T03:24:45.670Z,34.00
2022-08-20T03:27:14.716Z,56.20
2022-08-20T03:29:43.382Z,57.10
2022-08-20T03:32:12.099Z,82.70
2022-08-20T03:34:40.759Z,92.30
2022-08-20T03:37:11.894Z,81.30
2022-08-20T03:39:40.789Z,71.10
2022-08-20T03:42:09.779Z,66.70
2022-08-20T03:44:38.474Z,31.40
2022-08-20T03:47:09.693Z,23.40
2022-08-20T03:49:38.345Z,20.40
2022-08-20T03:52:07.386Z,20.00
2022-08-20T03:54:37.461Z,8.60
2022-08-20T03:57:12.756Z,1.00
2022-08-20T03:59:41.819Z,1.00
2022-08-20T04:02:11.342Z,7.50
2022-08-20T04:04:40.504Z,26.40
2022-08-20T04:07:13.341Z,13.40
2022-08-20T04:09:43.902Z,1.00
2022-08-20T04:12:13.825Z,1.00
2022-08-20T04:14:42.508Z,1.00
2022-08-20T04:17:14.319Z,1.00
2022-08-20T04:19:44.560Z,1.00
2022-08-20T04:22:15.031Z,1.00
2022-08-20T04:24:45.322Z,2.10
2022-08-20T04:27:14.970Z,10.70
2022-08-20T04:29:44.927Z,18.00
2022-08-20T04:32:14.188Z,27.20
2022-08-20T04:34:47.276Z,32.40
2022-08-20T04:37:17.654Z,39.90
2022-08-20T04:40:07.997Z,41.50
2022-08-20T04:42:38.376Z,46.20
2022-08-20T04:45:10.040Z,37.90
2022-08-20T04:47:38.734Z,32.10
2022-08-20T04:50:10.857Z,21.50
2022-08-20T04:52:39.585Z,12.50
2022-08-20T04:55:11.378Z,9.30
2022-08-20T04:57:40.114Z,1.00
2022-08-20T05:00:13.192Z,1.00
2022-08-20T05:02:42.471Z,1.70
2022-08-20T05:05:11.798Z,1.00
2022-08-20T05:07:42.579Z,1.00
2022-08-20T05:10:15.451Z,1.00
2022-08-20T05:12:55.094Z,1.00
2022-08-20T05:15:26.550Z,1.00
2022-08-20T05:17:58.696Z,1.00
2022-08-20T05:20:28.896Z,1.00
2022-08-20T05:22:57.503Z,1.00
2022-08-20T05:25:29.578Z,1.00
2022-08-20T05:28:00.901Z,1.00
2022-08-20T05:30:33.579Z,1.00
2022-08-20T05:33:03.670Z,1.00
2022-08-20T05:35:34.599Z,1.00
2022-08-20T05:38:03.427Z,1.00
2022-08-20T05:40:34.151Z,1.00
2022-08-20T05:43:04.503Z,1.00
2022-08-20T05:45:33.926Z,1.00
2022-08-20T05:48:06.526Z,1.00
2022-08-20T05:50:36.211Z,1.00
2022-08-20T05:53:05.343Z,1.00
2022-08-20T05:55:37.614Z,1.00
2022-08-20T05:58:08.688Z,1.00
2022-08-20T06:00:37.654Z,1.00
2022-08-20T06:03:23.525Z,1.00
2022-08-20T06:05:52.349Z,1.00
2022-08-20T06:08:21.100Z,1.00
2022-08-20T06:10:51.237Z,1.00
2022-08-20T06:13:20.111Z,1.00
2022-08-20T06:15:48.852Z,1.00
2022-08-20T06:18:27.738Z,1.00
2022-08-20T06:20:57.922Z,1.00
2022-08-20T06:23:26.800Z,1.00
2022-08-20T06:25:56.913Z,1.00
2022-08-20T06:28:25.826Z,1.00
2022-08-20T06:30:54.758Z,1.00
2022-08-20T06:33:23.411Z,1.00
2022-08-20T06:35:52.050Z,1.00
2022-08-20T06:38:20.759Z,1.00
2022-08-20T06:40:49.665Z,1.00
2022-08-20T06:43:19.773Z,1.00
2022-08-20T06:45:48.469Z,1.00
2022-08-20T06:48:17.492Z,1.00
2022-08-20T06:50:48.480Z,1.00
2022-08-20T06:53:20.892Z,1.00
2022-08-20T06:55:53.218Z,1.00
2022-08-20T06:58:30.468Z,1.00
2022-08-20T07:01:09.269Z,1.00
2022-08-20T07:03:39.443Z,1.00
2022-08-20T07:06:11.510Z,1.00
2022-08-20T07:08:40.654Z,1.00
2022-08-20T07:11:09.481Z,1.00
2022-08-20T07:13:41.628Z,1.00
2022-08-20T07:16:10.275Z,1.00
2022-08-20T07:18:38.998Z,1.00
2022-08-20T07:21:07.986Z,1.00
2022-08-20T07:23:36.757Z,1.00
2022-08-20T07:26:05.797Z,99.90
2022-08-20T07:28:34.617Z,99.90
2022-08-20T07:31:22.138Z,99.90
2022-08-20T07:33:52.088Z,99.90
2022-08-20T07:36:21.999Z,99.90
2022-08-20T07:38:52.789Z,99.90
2022-08-20T07:41:22.024Z,99.90
2022-08-20T07:43:51.205Z,1.00
2022-08-20T07:46:22.878Z,1.00
2022-08-20T07:48:52.015Z,1.00
2022-08-20T07:51:23.350Z,78.40
2022-08-20T07:53:53.099Z,99.90
2022-08-20T07:56:25.026Z,1.00
2022-08-20T07:58:56.804Z,99.90
2022-08-20T08:01:29.979Z,99.90
2022-08-20T08:03:59.337Z,99.90
2022-08-20T08:06:31.303Z,1.00
2022-08-20T08:09:04.674Z,1.00
2022-08-20T08:11:37.802Z,99.90
2022-08-20T08:14:10.235Z,1.00
2022-08-20T08:16:42.475Z,1.00
2022-08-20T08:19:16.198Z,99.90
2022-08-20T08:21:45.940Z,99.90
2022-08-20T08:24:19.976Z,1.00
2022-08-20T08:26:51.212Z,1.00
2022-08-20T08:29:20.404Z,1.00
2022-08-20T08:31:50.955Z,99.90
2022-08-20T08:34:20.400Z,99.90
2022-08-20T08:36:51.379Z,99.90
2022-08-20T08:39:21.004Z,43.40
2022-08-20T08:41:51.879Z,40.60
2022-08-20T08:44:27.483Z,1.00
2022-08-20T08:47:00.723Z,1.00
2022-08-20T08:49:38.006Z,1.00
2022-08-20T08:52:15.082Z,1.00
2022-08-20T08:54:49.288Z,1.00
2022-08-20T08:57:18.256Z,1.00
2022-08-20T09:00:04.452Z,1.00
2022-08-20T09:02:39.169Z,1.00
2022-08-20T09:05:19.250Z,1.00
2022-08-20T09:07:51.480Z,1.00
2022-08-20T09:10:23.695Z,1.00
2022-08-20T09:12:52.831Z,1.00
2022-08-20T09:15:23.577Z,1.00
2022-08-20T09:17:54.190Z,1.00
2022-08-20T09:20:26.919Z,1.00
2022-08-20T09:22:56.340Z,1.00
2022-08-20T09:25:25.894Z,1.00
2022-08-20T09:27:55.210Z,1.00
2022-08-20T09:30:24.418Z,1.00
2022-08-20T09:32:55.572Z,1.00
2022-08-20T09:35:24.726Z,1.00
2022-08-20T09:37:53.777Z,1.00
2022-08-20T09:40:22.653Z,1.00
2022-08-20T09:42:52.033Z,1.00
2022-08-20T09:45:21.771Z,1.00
2022-08-20T09:47:56.212Z,1.00
2022-08-20T09:50:28.045Z,1.00
2022-08-20T09:52:58.586Z,1.00
2022-08-20T09:55:33.835Z,1.00
2022-08-20T09:58:04.016Z,1.00
2022-08-20T10:00:32.743Z,1.00
2022-08-20T10:03:03.600Z,1.00
2022-08-20T10:05:33.887Z,1.00
2022-08-20T10:08:07.030Z,1.00
2022-08-20T10:10:37.642Z,1.00
2022-08-20T10:13:07.590Z,1.00
2022-08-20T10:15:38.146Z,1.00
2022-08-20T10:18:12.256Z,1.00
2022-08-20T10:20:45.906Z,1.00
2022-08-20T10:23:14.904Z,1.00
2022-08-20T10:25:45.484Z,1.00
2022-08-20T10:28:16.530Z,1.00
2022-08-20T10:30:47.294Z,1.00
2022-08-20T10:33:16.659Z,1.00
2022-08-20T10:35:47.162Z,1.00
2022-08-20T10:38:16.441Z,1.00
2022-08-20T10:40:50.943Z,1.00
2022-08-20T10:43:22.196Z,1.00
2022-08-20T10:45:52.963Z,1.00
2022-08-20T10:48:25.106Z,1.00
2022-08-20T10:50:56.107Z,1.00
2022-08-20T10:53:25.136Z,1.00
2022-08-20T10:56:01.233Z,1.00
2022-08-20T10:58:39.751Z,1.00
2022-08-20T11:01:28.736Z,1.00
2022-08-20T11:04:11.337Z,1.00
2022-08-20T11:06:42.925Z,1.00
2022-08-20T11:09:16.116Z,1.00
2022-08-20T11:11:45.154Z,1.00
2022-08-20T11:14:13.952Z,1.00
2022-08-20T11:16:42.675Z,1.00
2022-08-20T11:19:11.837Z,1.00
2022-08-20T11:21:42.006Z,1.00
2022-08-20T11:24:10.781Z,1.00
2022-08-20T11:26:39.623Z,1.00
2022-08-20T11:29:08.817Z,1.00
2022-08-20T11:31:37.748Z,1.00
2022-08-20T11:34:12.068Z,1.00
2022-08-20T11:36:43.214Z,1.00
2022-08-20T11:39:12.204Z,1.00
2022-08-20T11:41:41.420Z,1.00
2022-08-20T11:44:21.762Z,1.00
2022-08-20T11:46:50.713Z,1.00
2022-08-20T11:49:21.035Z,1.00
2022-08-20T11:51:52.504Z,1.00
2022-08-20T11:54:23.528Z,1.00
2022-08-20T11:56:55.160Z,1.00
2022-08-20T11:59:24.553Z,1.00
2022-08-20T12:02:03.150Z,1.00
2022-08-20T12:04:35.468Z,1.00
2022-08-20T12:07:14.834Z,1.00
2022-08-20T12:09:53.475Z,1.00
2022-08-20T12:12:24.600Z,1.00
2022-08-20T12:15:00.164Z,1.00
2022-08-20T12:17:32.968Z,1.00
2022-08-20T12:20:05.708Z,1.00
2022-08-20T12:22:36.120Z,1.00
2022-08-20T12:25:07.152Z,1.00
2022-08-20T12:27:41.327Z,1.00
2022-08-20T12:30:13.572Z,1.00
2022-08-20T12:32:43.012Z,1.00
2022-08-20T12:35:13.659Z,1.00
2022-08-20T12:37:47.291Z,1.00
2022-08-20T12:40:18.257Z,1.00
2022-08-20T12:43:02.290Z,1.00
2022-08-20T12:45:32.575Z,1.00
2022-08-20T12:48:09.910Z,1.00
2022-08-20T12:50:46.755Z,1.00
2022-08-20T12:53:27.255Z,1.00
2022-08-20T12:55:56.412Z,1.00
2022-08-20T12:58:25.582Z,1.00
2022-08-20T13:00:56.972Z,1.00
2022-08-20T13:03:25.815Z,1.00
2022-08-20T13:05:57.053Z,1.00
2022-08-20T13:08:27.493Z,1.00
2022-08-20T13:10:56.932Z,1.00
2022-08-20T13:13:25.931Z,1.00
2022-08-20T13:15:54.835Z,1.00
2022-08-20T13:18:23.691Z,1.00
2022-08-20T13:20:52.755Z,1.00
2022-08-20T13:23:21.652Z,1.00
2022-08-20T13:25:52.030Z,1.00
2022-08-20T13:28:20.753Z,1.00
2022-08-20T13:30:49.849Z,1.00
2022-08-20T13:33:18.601Z,1.00
2022-08-20T13:35:47.322Z,1.00
2022-08-20T13:38:16.129Z,1.00
2022-08-20T13:40:45.162Z,1.00
2022-08-20T13:43:19.373Z,1.00
2022-08-20T13:45:48.056Z,1.00
2022-08-20T13:48:16.757Z,1.00
2022-08-20T13:50:47.184Z,1.00
2022-08-20T13:53:16.698Z,1.00
2022-08-20T13:55:46.312Z,1.00
2022-08-20T13:58:15.069Z,1.00
2022-08-20T14:00:46.606Z,1.00
2022-08-20T14:03:19.948Z,1.00
2022-08-20T14:05:53.875Z,1.00
2022-08-20T14:08:24.637Z,1.00
2022-08-20T14:10:53.379Z,1.00
2022-08-20T14:13:27.185Z,1.00
2022-08-20T14:15:57.839Z,1.00
2022-08-20T14:18:26.977Z,1.00
2022-08-20T14:20:55.666Z,1.00
2022-08-20T14:23:24.525Z,1.00
2022-08-20T14:25:53.417Z,1.00
2022-08-20T14:28:23.935Z,1.00
2022-08-20T14:30:53.838Z,1.00
2022-08-20T14:33:24.865Z,1.00
2022-08-20T14:35:54.883Z,1.00
2022-08-20T14:38:23.693Z,1.00
2022-08-20T14:40:52.599Z,1.00
2022-08-20T14:43:21.308Z,1.00
2022-08-20T14:45:49.932Z,1.00
2022-08-20T14:48:18.536Z,1.00
2022-08-20T14:50:48.635Z,1.00
2022-08-20T14:53:17.207Z,1.00
2022-08-20T14:55:45.916Z,1.00
2022-08-20T14:58:17.231Z,1.00
2022-08-20T15:00:46.994Z,1.00
2022-08-20T15:03:15.696Z,1.00
2022-08-20T15:05:44.581Z,1.00
2022-08-20T15:08:14.843Z,91.90
2022-08-20T15:10:45.064Z,99.90
2022-08-20T15:13:13.729Z,1.00
2022-08-20T15:15:42.466Z,99.90
2022-08-20T15:18:11.147Z,99.90
2022-08-20T15:20:40.099Z,99.90
2022-08-20T15:23:08.691Z,99.90
2022-08-20T15:25:39.122Z,1.00
2022-08-20T15:28:10.252Z,99.90
2022-08-20T15:30:39.801Z,1.00
2022-08-20T15:33:09.044Z,99.90
2022-08-20T15:35:38.076Z,99.90
2022-08-20T15:38:06.683Z,99.90
2022-08-20T15:40:35.870Z,99.90
2022-08-20T15:43:07.923Z,99.90
2022-08-20T15:45:38.653Z,99.90
2022-08-20T15:48:13.442Z,99.90
2022-08-20T15:51:32.922Z,99.90
2022-08-20T15:54:04.386Z,99.90
2022-08-20T15:57:02.385Z,99.90
2022-08-20T15:59:49.241Z,99.90
2022-08-20T16:02:35.890Z,99.90
2022-08-20T16:05:24.069Z,99.90
2022-08-20T16:08:03.362Z,99.90
2022-08-20T16:10:41.944Z,99.90
2022-08-20T16:13:20.948Z,99.90
2022-08-20T16:15:56.510Z,99.90
2022-08-20T16:18:32.649Z,99.90
2022-08-20T16:21:04.049Z,99.90
2022-08-20T16:23:35.697Z,99.90
2022-08-20T16:26:17.042Z,99.90
2022-08-20T16:28:55.572Z,99.90
2022-08-20T16:31:30.359Z,99.90
2022-08-20T16:34:23.427Z,99.90
2022-08-20T16:37:04.438Z,99.90
2022-08-20T16:39:40.989Z,99.90
2022-08-20T16:42:11.883Z,99.90
2022-08-20T16:44:43.594Z,99.90
2022-08-20T16:47:18.490Z,99.90
2022-08-20T16:49:52.013Z,99.90
2022-08-20T16:52:20.992Z,99.90
2022-08-20T16:54:49.820Z,99.90
2022-08-20T16:57:20.101Z,99.90
2022-08-20T17:00:00.663Z,99.90
2022-08-20T17:02:30.803Z,99.90
2022-08-20T17:05:04.703Z,99.90
2022-08-20T17:07:46.131Z,99.90
2022-08-20T17:10:20.678Z,99.90
2022-08-20T17:12:54.870Z,99.90
2022-08-20T17:15:27.635Z,99.90
2022-08-20T17:18:17.889Z,99.90
2022-08-20T17:20:47.335Z,99.90
2022-08-20T17:23:18.641Z,99.90
2022-08-20T17:25:58.363Z,99.90
2022-08-20T17:28:35.454Z,99.90
2022-08-20T17:31:04.401Z,99.90
2022-08-20T17:33:38.186Z,99.90
2022-08-20T17:36:11.740Z,99.90
2022-08-20T17:38:48.206Z,99.90
2022-08-20T17:41:23.327Z,99.90
2022-08-20T17:43:59.898Z,99.90
2022-08-20T17:46:30.708Z,99.90
2022-08-20T17:49:03.563Z,99.90
2022-08-20T17:51:37.952Z,99.90
2022-08-20T17:54:13.799Z,99.90
2022-08-20T17:56:44.902Z,99.90
2022-08-20T17:59:24.031Z,99.90
2022-08-20T18:02:06.680Z,99.90
2022-08-20T18:04:36.753Z,99.90
2022-08-20T18:07:14.760Z,99.90
2022-08-20T18:09:51.741Z,99.90
2022-08-20T18:12:34.398Z,99.90
2022-08-20T18:15:10.799Z,99.90
2022-08-20T18:17:59.919Z,99.90
2022-08-20T18:20:56.417Z,99.90
2022-08-20T18:23:29.330Z,99.90
2022-08-20T18:26:05.185Z,99.90
2022-08-20T18:28:39.688Z,99.90
2022-08-20T18:31:10.699Z,99.90
2022-08-20T18:33:42.488Z,99.90
2022-08-20T18:36:16.259Z,99.90
2022-08-20T18:38:57.548Z,99.90
2022-08-20T18:41:31.352Z,99.90
2022-08-20T18:44:06.852Z,99.90
2022-08-20T18:46:36.416Z,99.90
2022-08-20T18:49:09.250Z,99.90
2022-08-20T18:51:44.118Z,99.90
2022-08-20T18:54:25.431Z,99.90
2022-08-20T18:57:06.003Z,99.90
2022-08-20T18:59:42.074Z,99.90
2022-08-20T19:02:23.648Z,99.90
2022-08-20T19:04:59.729Z,99.90
2022-08-20T19:07:48.274Z,99.90
2022-08-20T19:10:42.425Z,99.90
2022-08-20T19:13:43.857Z,99.90
2022-08-20T19:16:17.977Z,99.90
2022-08-20T19:18:50.795Z,99.90
2022-08-20T19:21:24.193Z,99.90
2022-08-20T19:23:58.820Z,99.90
2022-08-20T19:26:31.726Z,99.90
2022-08-20T19:29:03.281Z,99.90
2022-08-20T19:31:34.554Z,99.90
2022-08-20T19:34:20.043Z,99.90
2022-08-20T19:37:28.211Z,99.90
2022-08-20T19:39:57.708Z,99.90
2022-08-20T19:42:28.591Z,99.90
2022-08-20T19:45:01.547Z,99.90
2022-08-20T19:47:33.901Z,99.90
2022-08-20T19:50:17.533Z,99.90
2022-08-20T19:52:57.302Z,99.90
2022-08-20T19:55:31.822Z,99.90
2022-08-20T19:58:03.019Z,99.90
2022-08-20T20:00:40.905Z,99.90
2022-08-20T20:03:17.383Z,99.90
2022-08-20T20:06:21.901Z,99.90
2022-08-20T20:08:57.921Z,99.90
2022-08-20T20:11:35.359Z,99.90
2022-08-20T20:14:16.697Z,99.90
2022-08-20T20:16:51.457Z,99.90
2022-08-20T20:19:30.937Z,99.90
2022-08-20T20:22:19.927Z,99.90
2022-08-20T20:24:58.457Z,99.90
2022-08-20T20:27:32.538Z,99.90
2022-08-20T20:30:03.876Z,99.90
2022-08-20T20:32:35.708Z,99.90
2022-08-20T20:35:09.606Z,99.90
2022-08-20T20:37:49.615Z,99.90
2022-08-20T20:40:25.963Z,99.90
2022-08-20T20:43:07.161Z,99.90
2022-08-20T20:45:40.950Z,99.90
2022-08-20T20:48:25.152Z,99.90
2022-08-20T20:50:56.570Z,99.90
2022-08-20T20:53:47.457Z,99.90
2022-08-20T20:56:40.083Z,99.90
2022-08-20T20:59:19.454Z,99.90
2022-08-20T21:01:50.553Z,99.90
2022-08-20T21:04:22.774Z,99.90
2022-08-20T21:06:59.450Z,99.90
2022-08-20T21:09:47.490Z,99.90
2022-08-20T21:12:17.358Z,99.90
2022-08-20T21:14:48.204Z,99.90
2022-08-20T21:17:23.129Z,99.90
2022-08-20T21:19:55.799Z,99.90
2022-08-20T21:22:25.900Z,99.90
2022-08-20T21:24:55.984Z,99.90
2022-08-20T21:27:30.089Z,99.90
2022-08-20T21:30:00.868Z,99.90
2022-08-20T21:32:29.567Z,99.90
2022-08-20T21:35:00.875Z,99.90
2022-08-20T21:37:29.810Z,99.90
2022-08-20T21:39:59.191Z,99.90
2022-08-20T21:42:29.841Z,99.90
2022-08-20T21:45:02.323Z,99.90
2022-08-20T21:47:31.366Z,99.90
2022-08-20T21:50:02.084Z,99.90
2022-08-20T21:52:36.197Z,99.90
2022-08-20T21:55:11.643Z,99.90
2022-08-20T21:57:40.951Z,99.90
2022-08-20T22:00:17.975Z,99.90
2022-08-20T22:02:46.740Z,99.90
2022-08-20T22:05:16.165Z,99.90
2022-08-20T22:07:45.344Z,99.90
2022-08-20T22:10:14.437Z,99.90
2022-08-20T22:12:43.565Z,99.90
2022-08-20T22:15:14.027Z,99.90
2022-08-20T22:17:42.907Z,99.90
2022-08-20T22:20:12.427Z,99.90
2022-08-20T22:22:41.376Z,99.90
2022-08-20T22:25:15.064Z,99.90
2022-08-20T22:27:44.130Z,99.90
2022-08-20T22:30:15.305Z,99.90
2022-08-20T22:32:52.297Z,99.90
2022-08-20T22:35:21.660Z,99.90
2022-08-20T22:37:50.531Z,99.90
2022-08-20T22:40:19.694Z,99.90
2022-08-20T22:42:48.679Z,99.90
2022-08-20T22:45:19.185Z,99.90
2022-08-20T22:47:48.246Z,99.90
2022-08-20T22:50:25.485Z,99.90
2022-08-20T22:52:54.797Z,99.90
2022-08-20T22:55:23.631Z,99.90
2022-08-20T22:57:53.464Z,99.90
2022-08-20T23:00:24.086Z,99.90
2022-08-20T23:02:56.553Z,99.90
2022-08-20T23:05:28.387Z,99.90
2022-08-20T23:07:58.854Z,99.90
2022-08-20T23:10:29.969Z,99.90
2022-08-20T23:12:59.184Z,99.90
2022-08-20T23:15:30.816Z,99.90
2022-08-20T23:18:04.346Z,99.90
2022-08-20T23:20:33.464Z,99.90
2022-08-20T23:23:02.445Z,99.90
2022-08-20T23:25:31.454Z,99.90
2022-08-20T23:28:04.194Z,99.90
2022-08-20T23:30:34.629Z,99.90
2022-08-20T23:33:05.454Z,99.90
2022-08-20T23:35:34.212Z,99.90
2022-08-20T23:38:03.016Z,99.90
2022-08-20T23:40:32.280Z,99.90
2022-08-20T23:43:01.068Z,99.90
2022-08-20T23:45:31.074Z,99.90
2022-08-20T23:48:01.534Z,99.90
2022-08-20T23:50:32.107Z,99.90
2022-08-20T23:53:00.818Z,99.90
2022-08-20T23:55:29.528Z,99.90
2022-08-20T23:57:58.220Z,99.90
